createdAt,value
2019-02-21T00:02:23.849Z,102180.89
2019-02-21T00:04:49.714Z,102183.52
2019-02-21T00:07:15.641Z,102187.62
2019-02-21T00:09:41.485Z,102181.89
2019-02-21T00:12:07.303Z,102182.70
2019-02-21T00:14:33.160Z,102187.05
2019-02-21T00:16:59.100Z,102194.55
2019-02-21T00:19:24.945Z,102192.31
2019-02-21T00:21:50.793Z,102190.56
2019-02-21T00:24:16.651Z,102188.63
2019-02-21T00:26:44.254Z,102187.83
2019-02-21T00:29:10.405Z,102186.62
2019-02-21T00:31:36.254Z,102184.06
2019-02-21T00:34:02.064Z,102193.73
2019-02-21T00:36:28.015Z,102194.77
2019-02-21T00:38:53.864Z,102192.19
2019-02-21T00:41:19.706Z,102194.31
2019-02-21T00:43:45.528Z,102196.28
2019-02-21T00:46:11.933Z,102193.25
2019-02-21T00:48:37.773Z,102184.19
2019-02-21T00:51:03.614Z,102185.11
2019-02-21T00:53:29.440Z,102185.16
2019-02-21T00:55:55.512Z,102190.06
2019-02-21T00:58:21.434Z,102181.20
2019-02-21T01:00:47.389Z,102179.53
2019-02-21T01:03:13.214Z,102182.05
2019-02-21T01:05:39.269Z,102186.08
2019-02-21T01:08:05.941Z,102185.66
2019-02-21T01:10:31.820Z,102186.61
2019-02-21T01:12:58.707Z,102188.85
2019-02-21T01:15:24.603Z,102188.39
2019-02-21T01:17:50.443Z,102189.31
2019-02-21T01:20:16.392Z,102188.11
2019-02-21T01:22:42.358Z,102195.83
2019-02-21T01:25:08.192Z,102197.06
2019-02-21T01:27:34.045Z,102195.39
2019-02-21T01:29:59.877Z,102191.95
2019-02-21T01:32:25.826Z,102196.78
2019-02-21T01:34:51.641Z,102202.37
2019-02-21T01:37:17.581Z,102199.70
2019-02-21T01:39:43.404Z,102201.41
2019-02-21T01:42:09.268Z,102201.37
2019-02-21T01:44:35.124Z,102201.76
2019-02-21T01:47:00.969Z,102205.31
2019-02-21T01:49:26.789Z,102202.68
2019-02-21T01:51:52.649Z,102200.94
2019-02-21T01:54:18.506Z,102204.39
2019-02-21T01:56:44.327Z,102205.70
2019-02-21T01:59:10.165Z,102200.55
2019-02-21T02:01:35.995Z,102197.49
2019-02-21T02:04:01.856Z,102200.23
2019-02-21T02:06:27.782Z,102206.42
2019-02-21T02:08:53.780Z,102204.50
2019-02-21T02:11:19.736Z,102201.37
2019-02-21T02:13:45.584Z,102201.05
2019-02-21T02:16:11.424Z,102204.50
2019-02-21T02:18:37.280Z,102210.11
2019-02-21T02:21:04.136Z,102211.22
2019-02-21T02:23:29.976Z,102208.83
2019-02-21T02:25:55.826Z,102207.75
2019-02-21T02:28:21.675Z,102213.08
2019-02-21T02:30:47.499Z,102205.96
2019-02-21T02:33:13.319Z,102211.20
2019-02-21T02:35:39.176Z,102215.97
2019-02-21T02:38:04.973Z,102215.48
2019-02-21T02:40:30.829Z,102212.03
2019-02-21T02:42:56.647Z,102216.00
2019-02-21T02:45:22.492Z,102218.47
2019-02-21T02:47:48.330Z,102209.00
2019-02-21T02:50:14.219Z,102222.02
2019-02-21T02:52:40.074Z,102217.55
2019-02-21T02:55:06.031Z,102212.03
2019-02-21T02:57:31.869Z,102211.39
2019-02-21T02:59:57.724Z,102212.45
2019-02-21T03:02:24.126Z,102221.55
2019-02-21T03:04:50.043Z,102221.43
2019-02-21T03:07:15.842Z,102233.72
2019-02-21T03:09:41.791Z,102225.68
2019-02-21T03:12:07.608Z,102229.90
2019-02-21T03:14:33.444Z,102229.34
2019-02-21T03:16:59.278Z,102228.53
2019-02-21T03:19:25.113Z,102231.98
2019-02-21T03:21:50.965Z,102229.72
2019-02-21T03:24:16.811Z,102228.70
2019-02-21T03:26:42.640Z,102234.11
2019-02-21T03:29:08.464Z,102229.89
2019-02-21T03:31:52.652Z,102228.78
2019-02-21T03:34:02.150Z,102225.67
2019-02-21T03:36:28.025Z,102233.59
2019-02-21T03:38:53.851Z,102222.87
2019-02-21T03:41:19.695Z,102220.02
2019-02-21T03:43:45.509Z,102222.95
2019-02-21T03:46:11.453Z,102229.47
2019-02-21T03:48:37.297Z,102220.01
2019-02-21T03:51:03.112Z,102217.75
2019-02-21T03:53:29.431Z,102217.38
2019-02-21T03:58:31.057Z,102221.48
2019-02-21T04:00:57.022Z,102219.41
2019-02-21T04:03:22.964Z,102226.09
2019-02-21T04:05:48.809Z,102228.98
2019-02-21T04:08:14.696Z,102224.56
2019-02-21T04:10:40.515Z,102228.13
2019-02-21T04:13:06.352Z,102229.92
2019-02-21T04:15:32.829Z,102227.95
2019-02-21T04:17:58.691Z,102231.70
2019-02-21T04:20:24.546Z,102229.95
2019-02-21T04:22:50.395Z,102233.91
2019-02-21T04:25:16.208Z,102234.58
2019-02-21T04:27:42.126Z,102220.91
2019-02-21T04:30:08.349Z,102220.63
2019-02-21T04:32:34.182Z,102215.63
2019-02-21T04:35:00.323Z,102211.34
2019-02-21T04:37:26.332Z,102213.98
2019-02-21T04:39:52.171Z,102207.77
2019-02-21T04:42:18.209Z,102210.02
2019-02-21T04:44:44.049Z,102209.02
2019-02-21T04:47:09.866Z,102207.16
2019-02-21T04:49:35.714Z,102201.53
2019-02-21T04:52:01.518Z,102203.08
2019-02-21T04:54:27.371Z,102201.34
2019-02-21T04:56:53.194Z,102206.32
2019-02-21T04:59:19.045Z,102200.97
2019-02-21T05:01:44.863Z,102203.05
2019-02-21T05:04:10.704Z,102207.73
2019-02-21T05:06:36.539Z,102196.62
2019-02-21T05:09:04.319Z,102202.25
2019-02-21T05:11:30.134Z,102204.75
2019-02-21T05:13:56.025Z,102205.80
2019-02-21T05:16:21.876Z,102199.37
2019-02-21T05:18:47.709Z,102201.27
2019-02-21T05:21:13.578Z,102199.65
2019-02-21T05:23:39.446Z,102198.41
2019-02-21T05:26:06.229Z,102199.42
2019-02-21T05:28:32.057Z,102201.20
2019-02-21T05:30:59.786Z,102204.30
2019-02-21T05:33:39.721Z,102199.45
2019-02-21T05:36:07.506Z,102204.80
2019-02-21T05:38:35.338Z,102203.25
2019-02-21T05:41:06.092Z,102205.54
2019-02-21T05:43:37.343Z,102205.23
2019-02-21T05:46:08.245Z,102203.10
2019-02-21T05:48:35.910Z,102205.81
2019-02-21T05:51:06.198Z,102203.72
2019-02-21T05:53:33.929Z,102209.56
2019-02-21T05:56:16.710Z,102207.39
2019-02-21T05:58:50.567Z,102207.94
2019-02-21T06:01:21.085Z,102213.66
2019-02-21T06:03:57.899Z,102211.11
2019-02-21T06:06:25.656Z,102219.55
2019-02-21T06:08:59.314Z,102221.83
2019-02-21T06:11:34.931Z,102209.59
2019-02-21T06:14:05.234Z,102207.42
2019-02-21T06:16:35.826Z,102209.63
2019-02-21T06:19:06.345Z,102206.64
2019-02-21T06:21:42.701Z,102208.46
2019-02-21T06:24:13.447Z,102214.15
2019-02-21T06:26:57.875Z,102225.03
2019-02-21T06:29:25.757Z,102222.33
2019-02-21T06:31:51.909Z,102222.06
2019-02-21T06:34:17.735Z,102231.48
2019-02-21T06:36:43.561Z,102241.41
2019-02-21T06:39:09.403Z,102245.82
2019-02-21T06:41:35.336Z,102244.55
2019-02-21T06:44:01.212Z,102244.19
2019-02-21T06:46:27.046Z,102250.42
2019-02-21T06:48:52.885Z,102251.84
2019-02-21T06:51:18.700Z,102246.69
2019-02-21T06:53:44.545Z,102253.48
2019-02-21T06:56:10.406Z,102252.09
2019-02-21T06:58:36.254Z,102256.39
2019-02-21T07:01:02.040Z,102266.78
2019-02-21T07:03:29.081Z,102251.22
2019-02-21T07:05:55.663Z,102257.30
2019-02-21T07:08:21.524Z,102258.39
2019-02-21T07:10:47.378Z,102262.07
2019-02-21T07:13:13.264Z,102268.16
2019-02-21T07:15:39.115Z,102269.39
2019-02-21T07:18:05.068Z,102269.12
2019-02-21T07:20:31.056Z,102271.83
2019-02-21T07:22:56.893Z,102269.92
2019-02-21T07:25:39.654Z,102267.94
2019-02-21T07:28:11.727Z,102271.37
2019-02-21T07:30:33.592Z,102276.09
2019-02-21T07:32:59.520Z,102280.62
2019-02-21T07:35:25.473Z,102279.86
2019-02-21T07:37:53.356Z,102280.28
2019-02-21T07:40:20.357Z,102277.46
2019-02-21T07:42:48.120Z,102281.71
2019-02-21T07:45:14.386Z,102277.91
2019-02-21T07:47:40.631Z,102283.70
2019-02-21T07:50:07.416Z,102280.28
2019-02-21T07:52:33.263Z,102287.14
2019-02-21T07:55:02.056Z,102287.95
2019-02-21T07:57:26.871Z,102286.34
2019-02-21T07:59:52.774Z,102291.06
2019-02-21T08:02:20.917Z,102292.43
2019-02-21T08:04:46.514Z,102290.92
2019-02-21T08:07:12.336Z,102296.59
2019-02-21T08:09:38.160Z,102296.20
2019-02-21T08:12:04.104Z,102291.15
2019-02-21T08:14:29.940Z,102289.59
2019-02-21T08:16:56.230Z,102292.97
2019-02-21T08:19:22.231Z,102305.48
2019-02-21T08:21:48.326Z,102309.52
2019-02-21T08:24:14.417Z,102317.55
2019-02-21T08:26:40.258Z,102317.47
2019-02-21T08:29:06.361Z,102309.03
2019-02-21T08:31:32.659Z,102312.16
2019-02-21T08:34:04.406Z,102309.95
2019-02-21T08:36:30.780Z,102319.61
2019-02-21T08:38:56.603Z,102311.78
2019-02-21T08:41:22.459Z,102317.16
2019-02-21T08:43:48.279Z,102321.25
2019-02-21T08:46:14.221Z,102316.75
2019-02-21T08:48:40.590Z,102320.08
2019-02-21T08:51:06.718Z,102319.24
2019-02-21T08:53:32.563Z,102330.34
2019-02-21T08:55:58.399Z,102324.05
2019-02-21T08:58:24.249Z,102326.34
2019-02-21T09:00:50.098Z,102332.47
2019-02-21T09:03:18.016Z,102329.39
2019-02-21T09:05:43.701Z,102323.45
2019-02-21T09:08:09.556Z,102325.11
2019-02-21T09:10:35.596Z,102337.66
2019-02-21T09:13:01.447Z,102338.02
2019-02-21T09:15:27.330Z,102343.50
2019-02-21T09:17:54.228Z,102343.93
2019-02-21T09:20:20.436Z,102344.48
2019-02-21T09:22:46.289Z,102337.64
2019-02-21T09:25:13.231Z,102343.00
2019-02-21T09:27:39.154Z,102346.83
2019-02-21T09:30:14.837Z,102356.53
2019-02-21T09:32:42.020Z,102354.41
2019-02-21T09:35:08.451Z,102358.47
2019-02-21T09:37:34.370Z,102367.23
2019-02-21T09:40:00.330Z,102360.64
2019-02-21T09:42:26.144Z,102356.89
2019-02-21T09:44:51.998Z,102353.65
2019-02-21T09:47:17.817Z,102353.49
2019-02-21T09:49:43.773Z,102363.72
2019-02-21T09:52:09.694Z,102361.71
2019-02-21T09:54:35.557Z,102368.45
2019-02-21T09:57:12.795Z,102369.04
2019-02-21T09:59:31.037Z,102359.03
2019-02-21T10:01:57.694Z,102372.52
2019-02-21T10:04:31.922Z,102362.37
2019-02-21T10:06:51.457Z,102357.36
2019-02-21T10:09:17.290Z,102360.62
2019-02-21T10:11:43.105Z,102368.34
2019-02-21T10:14:08.936Z,102363.63
2019-02-21T10:16:34.776Z,102363.08
2019-02-21T10:19:00.595Z,102366.81
2019-02-21T10:21:26.495Z,102359.97
2019-02-21T10:23:52.310Z,102360.18
2019-02-21T10:26:18.168Z,102376.20
2019-02-21T10:28:45.241Z,102372.41
2019-02-21T10:31:11.524Z,102361.52
2019-02-21T10:33:46.577Z,102369.11
2019-02-21T10:36:05.229Z,102366.22
2019-02-21T10:38:31.050Z,102360.73
2019-02-21T10:40:56.945Z,102367.28
2019-02-21T10:43:22.779Z,102367.28
2019-02-21T10:45:48.584Z,102366.97
2019-02-21T10:48:14.477Z,102371.13
2019-02-21T10:50:40.352Z,102380.23
2019-02-21T10:53:06.195Z,102376.30
2019-02-21T10:55:32.020Z,102360.61
2019-02-21T10:57:58.246Z,102358.66
2019-02-21T11:00:28.794Z,102345.67
2019-02-21T11:02:54.753Z,102333.92
2019-02-21T11:05:20.681Z,102332.45
2019-02-21T11:07:46.627Z,102337.61
2019-02-21T11:10:18.928Z,102322.92
2019-02-21T11:12:43.852Z,102328.14
2019-02-21T11:15:12.192Z,102330.52
2019-02-21T11:17:38.039Z,102331.33
2019-02-21T11:20:07.689Z,102332.19
2019-02-21T11:22:33.537Z,102327.65
2019-02-21T11:24:59.372Z,102328.61
2019-02-21T11:27:25.215Z,102331.35
2019-02-21T11:29:51.053Z,102324.17
2019-02-21T11:32:16.900Z,102321.03
2019-02-21T11:34:42.733Z,102317.11
2019-02-21T11:37:08.648Z,102309.00
2019-02-21T11:39:34.498Z,102312.14
2019-02-21T11:42:00.648Z,102309.14
2019-02-21T11:44:26.582Z,102314.88
2019-02-21T11:46:52.401Z,102321.33
2019-02-21T11:49:18.266Z,102319.14
2019-02-21T11:51:44.089Z,102320.25
2019-02-21T11:54:09.946Z,102317.63
2019-02-21T11:56:35.754Z,102320.44
2019-02-21T11:59:01.606Z,102321.17
2019-02-21T12:01:27.467Z,102319.53
2019-02-21T12:03:53.675Z,102322.31
2019-02-21T12:06:22.653Z,102329.02
2019-02-21T12:08:48.615Z,102315.48
2019-02-21T12:11:14.455Z,102317.95
2019-02-21T12:13:40.281Z,102324.02
2019-02-21T12:16:06.215Z,102328.53
2019-02-21T12:18:32.098Z,102315.13
2019-02-21T12:20:58.068Z,102321.17
2019-02-21T12:23:23.891Z,102320.70
2019-02-21T12:25:49.848Z,102330.06
2019-02-21T12:28:15.822Z,102330.05
2019-02-21T12:30:41.688Z,102332.19
2019-02-21T12:33:08.532Z,102321.94
2019-02-21T12:35:34.370Z,102318.25
2019-02-21T12:38:00.210Z,102315.94
2019-02-21T12:40:26.085Z,102313.22
2019-02-21T12:42:52.022Z,102303.84
2019-02-21T12:45:20.175Z,102299.42
2019-02-21T12:47:52.765Z,102294.50
2019-02-21T12:50:14.428Z,102291.41
2019-02-21T12:52:40.380Z,102295.28
2019-02-21T12:55:08.235Z,102296.41
2019-02-21T12:57:34.092Z,102302.45
2019-02-21T12:59:59.942Z,102300.91
2019-02-21T13:02:25.817Z,102300.68
2019-02-21T13:04:51.669Z,102294.58
2019-02-21T13:07:17.535Z,102293.45
2019-02-21T13:09:43.383Z,102289.00
2019-02-21T13:12:09.333Z,102292.91
2019-02-21T13:14:35.280Z,102298.06
2019-02-21T13:17:01.131Z,102298.60
2019-02-21T13:19:26.971Z,102302.45
2019-02-21T13:21:52.939Z,102301.82
2019-02-21T13:24:18.762Z,102302.66
2019-02-21T13:26:44.651Z,102307.96
2019-02-21T13:29:10.485Z,102297.20
2019-02-21T13:31:36.334Z,102304.31
2019-02-21T13:34:02.404Z,102306.02
2019-02-21T13:36:28.268Z,102315.48
2019-02-21T13:38:54.368Z,102325.26
2019-02-21T13:41:20.203Z,102327.32
2019-02-21T13:43:46.070Z,102323.73
2019-02-21T13:46:11.902Z,102318.72
2019-02-21T13:48:37.773Z,102325.61
2019-02-21T13:51:03.605Z,102325.66
2019-02-21T13:53:29.498Z,102339.09
2019-02-21T13:55:55.445Z,102346.49
2019-02-21T13:58:21.317Z,102347.03
2019-02-21T14:00:47.180Z,102350.37
2019-02-21T14:03:13.052Z,102359.52
2019-02-21T14:05:38.869Z,102349.52
2019-02-21T14:08:05.168Z,102352.23
2019-02-21T14:10:31.117Z,102353.52
2019-02-21T14:12:56.933Z,102354.88
2019-02-21T14:15:25.699Z,102344.39
2019-02-21T14:17:51.504Z,102347.91
2019-02-21T14:20:17.406Z,102350.80
2019-02-21T14:22:43.245Z,102358.34
2019-02-21T14:25:09.710Z,102358.87
2019-02-21T14:27:35.702Z,102357.53
2019-02-21T14:30:03.467Z,102351.89
2019-02-21T14:32:29.335Z,102352.23
2019-02-21T14:34:55.208Z,102351.84
2019-02-21T14:37:21.061Z,102351.29
2019-02-21T14:39:46.878Z,102355.13
2019-02-21T14:42:12.870Z,102352.20
2019-02-21T14:44:38.725Z,102351.23
2019-02-21T14:47:04.541Z,102350.87
2019-02-21T14:49:30.492Z,102345.63
2019-02-21T14:51:56.332Z,102353.53
2019-02-21T14:54:22.176Z,102346.43
2019-02-21T14:56:48.080Z,102340.16
2019-02-21T14:59:13.890Z,102339.69
2019-02-21T15:01:39.763Z,102333.95
2019-02-21T15:04:05.619Z,102333.95
2019-02-21T15:06:31.628Z,102342.19
2019-02-21T15:08:57.485Z,102350.16
2019-02-21T15:11:23.310Z,102341.70
2019-02-21T15:13:49.143Z,102341.70
2019-02-21T15:16:15.081Z,102337.84
2019-02-21T15:18:40.930Z,102337.17
2019-02-21T15:21:06.830Z,102339.78
2019-02-21T15:23:32.650Z,102338.28
2019-02-21T15:25:58.538Z,102335.95
2019-02-21T15:28:24.359Z,102337.63
2019-02-21T15:30:50.244Z,102338.37
2019-02-21T15:33:16.097Z,102332.49
2019-02-21T15:35:41.920Z,102332.77
2019-02-21T15:38:17.172Z,102326.67
2019-02-21T15:40:35.497Z,102324.81
2019-02-21T15:43:01.461Z,102331.21
2019-02-21T15:45:28.291Z,102328.77
2019-02-21T15:47:54.331Z,102331.98
2019-02-21T15:50:20.484Z,102335.86
2019-02-21T15:52:46.866Z,102335.55
2019-02-21T15:55:15.582Z,102334.74
2019-02-21T15:57:41.571Z,102333.90
2019-02-21T16:00:13.597Z,102331.54
2019-02-21T16:02:39.480Z,102336.30
2019-02-21T16:05:06.027Z,102336.92
2019-02-21T16:07:31.852Z,102332.70
2019-02-21T16:09:57.710Z,102346.83
2019-02-21T16:12:24.166Z,102344.34
2019-02-21T16:14:50.383Z,102349.31
2019-02-21T16:17:16.396Z,102350.17
2019-02-21T16:19:42.278Z,102343.80
2019-02-21T16:22:08.162Z,102348.23
2019-02-21T16:24:34.063Z,102343.38
2019-02-21T16:26:59.921Z,102349.12
2019-02-21T16:29:25.999Z,102352.27
2019-02-21T16:31:52.025Z,102352.61
2019-02-21T16:34:18.400Z,102357.76
2019-02-21T16:36:44.232Z,102359.03
2019-02-21T16:39:10.299Z,102362.06
2019-02-21T16:41:36.787Z,102368.99
2019-02-21T16:44:02.968Z,102370.14
2019-02-21T16:46:28.805Z,102370.92
2019-02-21T16:48:54.764Z,102374.64
2019-02-21T16:51:22.226Z,102375.41
2019-02-21T16:53:48.314Z,102373.72
2019-02-21T16:56:14.193Z,102381.53
2019-02-21T16:58:42.695Z,102378.79
2019-02-21T17:01:08.017Z,102388.41
2019-02-21T17:03:33.885Z,102396.25
2019-02-21T17:05:59.752Z,102391.77
2019-02-21T17:08:25.701Z,102405.66
2019-02-21T17:10:51.573Z,102401.38
2019-02-21T17:13:17.426Z,102406.44
2019-02-21T17:15:43.382Z,102413.30
2019-02-21T17:18:09.324Z,102418.91
2019-02-21T17:20:35.235Z,102414.83
2019-02-21T17:23:01.062Z,102418.43
2019-02-21T17:25:26.948Z,102424.24
2019-02-21T17:27:52.811Z,102424.64
2019-02-21T17:30:19.449Z,102419.39
2019-02-21T17:32:45.840Z,102427.11
2019-02-21T17:35:12.795Z,102428.16
2019-02-21T17:37:38.642Z,102435.50
2019-02-21T17:40:08.348Z,102436.54
2019-02-21T17:42:34.179Z,102434.72
2019-02-21T17:44:59.999Z,102442.92
2019-02-21T17:47:25.891Z,102444.73
2019-02-21T17:49:51.735Z,102439.48
2019-02-21T17:52:17.698Z,102441.49
2019-02-21T17:54:43.546Z,102440.33
2019-02-21T17:57:09.508Z,102441.66
2019-02-21T17:59:35.355Z,102439.77
2019-02-21T18:02:01.242Z,102446.70
2019-02-21T18:04:27.197Z,102456.70
2019-02-21T18:06:53.146Z,102454.81
2019-02-21T18:09:19.127Z,102462.23
2019-02-21T18:11:45.048Z,102467.56
2019-02-21T18:14:10.872Z,102474.22
2019-02-21T18:16:36.812Z,102468.13
2019-02-21T18:19:02.693Z,102485.71
2019-02-21T18:21:28.895Z,102488.75
2019-02-21T18:23:54.777Z,102491.30
2019-02-21T18:26:20.731Z,102492.83
2019-02-21T18:28:46.588Z,102494.42
2019-02-21T18:31:12.436Z,102499.30
2019-02-21T18:33:38.516Z,102502.47
2019-02-21T18:36:04.441Z,102500.95
2019-02-21T18:38:30.408Z,102506.44
2019-02-21T18:40:56.291Z,102496.69
2019-02-21T18:43:22.189Z,102502.00
2019-02-21T18:45:48.440Z,102503.92
2019-02-21T18:48:14.404Z,102498.94
2019-02-21T18:50:40.363Z,102497.83
2019-02-21T18:53:06.205Z,102499.71
2019-02-21T18:55:32.080Z,102501.89
2019-02-21T18:57:57.925Z,102497.61
2019-02-21T19:00:25.521Z,102500.16
2019-02-21T19:02:51.547Z,102499.08
2019-02-21T19:05:18.723Z,102508.69
2019-02-21T19:07:44.564Z,102497.59
2019-02-21T19:10:14.282Z,102499.45
2019-02-21T19:12:40.158Z,102501.15
2019-02-21T19:15:08.420Z,102499.08
2019-02-21T19:17:34.335Z,102493.27
2019-02-21T19:20:00.790Z,102499.08
2019-02-21T19:22:26.677Z,102498.91
2019-02-21T19:24:52.867Z,102501.88
2019-02-21T19:27:18.740Z,102508.83
2019-02-21T19:29:44.647Z,102499.62
2019-02-21T19:32:10.495Z,102503.14
2019-02-21T19:34:36.441Z,102504.39
2019-02-21T19:37:02.407Z,102501.52
2019-02-21T19:39:28.269Z,102504.95
2019-02-21T19:41:54.394Z,102507.27
2019-02-21T19:44:20.246Z,102512.70
2019-02-21T19:46:46.226Z,102517.11
2019-02-21T19:49:12.109Z,102518.44
2019-02-21T19:51:38.039Z,102519.29
2019-02-21T19:54:03.977Z,102523.83
2019-02-21T19:56:29.859Z,102525.27
2019-02-21T19:58:55.816Z,102523.94
2019-02-21T20:01:21.951Z,102528.84
2019-02-21T20:03:47.831Z,102532.95
2019-02-21T20:06:13.757Z,102530.91
2019-02-21T20:08:39.773Z,102532.97
2019-02-21T20:11:05.749Z,102535.26
2019-02-21T20:13:31.717Z,102538.84
2019-02-21T20:15:57.672Z,102542.28
2019-02-21T20:18:23.572Z,102547.05
2019-02-21T20:20:49.556Z,102545.34
2019-02-21T20:23:15.846Z,102541.13
2019-02-21T20:25:41.797Z,102548.73
2019-02-21T20:28:08.073Z,102551.39
2019-02-21T20:30:33.903Z,102554.67
2019-02-21T20:32:59.803Z,102553.45
2019-02-21T20:35:25.808Z,102561.42
2019-02-21T20:37:51.657Z,102565.49
2019-02-21T20:40:17.608Z,102565.02
2019-02-21T20:42:43.663Z,102568.08
2019-02-21T20:45:10.949Z,102573.77
2019-02-21T20:47:36.787Z,102582.70
2019-02-21T20:50:05.424Z,102586.29
2019-02-21T20:52:31.401Z,102591.06
2019-02-21T20:54:57.455Z,102588.58
2019-02-21T20:57:23.377Z,102595.70
2019-02-21T20:59:49.387Z,102595.77
2019-02-21T21:02:15.360Z,102594.06
2019-02-21T21:04:41.508Z,102603.37
2019-02-21T21:07:07.550Z,102590.55
2019-02-21T21:09:33.425Z,102597.20
2019-02-21T21:11:59.306Z,102598.53
2019-02-21T21:14:25.273Z,102613.61
2019-02-21T21:16:51.200Z,102616.67
2019-02-21T21:19:17.185Z,102616.57
2019-02-21T21:21:43.141Z,102619.87
2019-02-21T21:24:08.995Z,102629.66
2019-02-21T21:26:35.014Z,102638.26
2019-02-21T21:29:00.917Z,102635.59
2019-02-21T21:31:26.865Z,102634.09
2019-02-21T21:33:52.830Z,102640.03
2019-02-21T21:36:18.822Z,102637.23
2019-02-21T21:38:53.728Z,102645.42
2019-02-21T21:41:12.781Z,102642.75
2019-02-21T21:43:38.705Z,102645.52
2019-02-21T21:46:04.693Z,102649.88
2019-02-21T21:48:30.636Z,102655.84
2019-02-21T21:50:56.503Z,102658.75
2019-02-21T21:53:22.459Z,102660.94
2019-02-21T21:55:48.340Z,102667.52
2019-02-21T21:58:14.279Z,102669.70
2019-02-21T22:00:40.142Z,102677.67
2019-02-21T22:03:06.117Z,102684.33
2019-02-21T22:05:31.973Z,102684.33
2019-02-21T22:07:57.829Z,102681.76
2019-02-21T22:10:23.770Z,102682.72
2019-02-21T22:12:49.633Z,102687.31
2019-02-21T22:15:20.147Z,102689.12
2019-02-21T22:17:46.035Z,102690.07
2019-02-21T22:20:12.585Z,102688.11
2019-02-21T22:22:38.458Z,102691.17
2019-02-21T22:25:07.551Z,102690.39
2019-02-21T22:27:33.389Z,102694.85
2019-02-21T22:29:59.226Z,102699.92
2019-02-21T22:32:25.172Z,102695.02
2019-02-21T22:34:51.117Z,102693.81
2019-02-21T22:37:17.046Z,102691.63
2019-02-21T22:39:42.928Z,102686.73
2019-02-21T22:42:08.774Z,102689.37
2019-02-21T22:44:34.653Z,102692.13
2019-02-21T22:47:00.494Z,102685.77
2019-02-21T22:49:26.443Z,102691.02
2019-02-21T22:51:52.255Z,102686.17
2019-02-21T22:54:18.221Z,102694.53
2019-02-21T22:56:44.143Z,102686.17
2019-02-21T22:59:09.992Z,102690.45
2019-02-21T23:01:35.913Z,102690.62
2019-02-21T23:04:08.343Z,102691.72
2019-02-21T23:06:47.103Z,102692.42
2019-02-21T23:09:26.941Z,102701.02
2019-02-21T23:11:46.235Z,102711.58
2019-02-21T23:14:12.183Z,102712.06
2019-02-21T23:16:38.129Z,102711.48
2019-02-21T23:19:04.006Z,102713.55
2019-02-21T23:21:29.914Z,102714.08
2019-02-21T23:23:55.796Z,102713.06
2019-02-21T23:26:21.608Z,102715.47
2019-02-21T23:28:47.436Z,102707.06
2019-02-21T23:31:13.382Z,102706.17
2019-02-21T23:33:53.336Z,102716.27
2019-02-21T23:36:19.184Z,102714.44
2019-02-21T23:38:45.083Z,102713.90
2019-02-21T23:41:11.065Z,102715.38
2019-02-21T23:43:37.000Z,102718.70
2019-02-21T23:46:02.954Z,102718.98
2019-02-21T23:48:28.798Z,102723.97
2019-02-21T23:50:54.645Z,102713.82
2019-02-21T23:53:20.465Z,102717.64
2019-02-21T23:55:46.326Z,102713.28
2019-02-21T23:58:12.155Z,102715.13
